sensor_id;sensor_type;location;lat;lon;timestamp;pressure;altitude;pressure_sealevel;temperature;humidity
23229;BME280;11783;50.350;6.576;2023-04-21T00:00:43;95825.16;;;6.48;99.68
23229;BME280;11783;50.350;6.576;2023-04-21T00:03:08;95832.38;;;6.41;98.24
23229;BME280;11783;50.350;6.576;2023-04-21T00:05:34;95831.22;;;6.36;99.50
23229;BME280;11783;50.350;6.576;2023-04-21T00:07:59;95835.47;;;6.37;98.52
23229;BME280;11783;50.350;6.576;2023-04-21T00:10:24;95825.72;;;6.38;99.32
23229;BME280;11783;50.350;6.576;2023-04-21T00:12:50;95834.56;;;6.44;98.49
23229;BME280;11783;50.350;6.576;2023-04-21T00:15:15;95834.09;;;6.47;97.40
23229;BME280;11783;50.350;6.576;2023-04-21T00:17:40;95831.69;;;6.45;96.80
23229;BME280;11783;50.350;6.576;2023-04-21T00:20:06;95827.31;;;6.39;97.66
23229;BME280;11783;50.350;6.576;2023-04-21T00:22:33;95818.25;;;6.35;97.20
23229;BME280;11783;50.350;6.576;2023-04-21T00:24:59;95824.69;;;6.39;97.27
23229;BME280;11783;50.350;6.576;2023-04-21T00:27:24;95822.59;;;6.29;96.75
23229;BME280;11783;50.350;6.576;2023-04-21T00:29:49;95826.53;;;6.38;97.88
23229;BME280;11783;50.350;6.576;2023-04-21T00:32:15;95829.69;;;6.29;97.27
23229;BME280;11783;50.350;6.576;2023-04-21T00:34:40;95824.06;;;6.25;97.44
23229;BME280;11783;50.350;6.576;2023-04-21T00:37:06;95817.88;;;6.31;98.51
23229;BME280;11783;50.350;6.576;2023-04-21T00:39:31;95822.97;;;6.33;98.51
23229;BME280;11783;50.350;6.576;2023-04-21T00:41:56;95819.72;;;6.31;98.44
23229;BME280;11783;50.350;6.576;2023-04-21T00:44:21;95817.22;;;6.36;99.63
23229;BME280;11783;50.350;6.576;2023-04-21T00:46:47;95817.56;;;6.40;98.58
23229;BME280;11783;50.350;6.576;2023-04-21T00:49:13;95821.00;;;6.40;97.75
23229;BME280;11783;50.350;6.576;2023-04-21T00:51:39;95818.25;;;6.47;96.98
23229;BME280;11783;50.350;6.576;2023-04-21T00:54:06;95821.03;;;6.52;97.43
23229;BME280;11783;50.350;6.576;2023-04-21T00:56:33;95816.56;;;6.52;97.04
23229;BME280;11783;50.350;6.576;2023-04-21T00:59:00;95809.44;;;6.53;98.06
23229;BME280;11783;50.350;6.576;2023-04-21T01:01:27;95813.47;;;6.55;97.42
23229;BME280;11783;50.350;6.576;2023-04-21T01:03:57;95811.97;;;6.59;97.56
23229;BME280;11783;50.350;6.576;2023-04-21T01:06:23;95815.31;;;6.55;96.48
23229;BME280;11783;50.350;6.576;2023-04-21T01:08:51;95814.63;;;6.59;96.59
23229;BME280;11783;50.350;6.576;2023-04-21T01:11:16;95808.75;;;6.57;96.81
23229;BME280;11783;50.350;6.576;2023-04-21T01:13:42;95809.34;;;6.59;96.02
23229;BME280;11783;50.350;6.576;2023-04-21T01:16:07;95815.66;;;6.58;96.51
23229;BME280;11783;50.350;6.576;2023-04-21T01:18:34;95808.53;;;6.59;96.71
23229;BME280;11783;50.350;6.576;2023-04-21T01:21:02;95808.31;;;6.60;96.49
23229;BME280;11783;50.350;6.576;2023-04-21T01:23:28;95810.69;;;6.50;96.54
23229;BME280;11783;50.350;6.576;2023-04-21T01:25:53;95806.59;;;6.54;97.25
23229;BME280;11783;50.350;6.576;2023-04-21T01:28:22;95804.41;;;6.51;96.65
23229;BME280;11783;50.350;6.576;2023-04-21T01:30:48;95802.75;;;6.50;99.11
23229;BME280;11783;50.350;6.576;2023-04-21T01:33:13;95808.97;;;6.44;98.31
23229;BME280;11783;50.350;6.576;2023-04-21T01:35:39;95805.28;;;6.33;98.32
23229;BME280;11783;50.350;6.576;2023-04-21T01:38:04;95808.38;;;6.42;98.09
23229;BME280;11783;50.350;6.576;2023-04-21T01:40:30;95807.25;;;6.38;98.46
23229;BME280;11783;50.350;6.576;2023-04-21T01:42:56;95801.97;;;6.50;98.97
23229;BME280;11783;50.350;6.576;2023-04-21T01:45:21;95809.44;;;6.53;98.45
23229;BME280;11783;50.350;6.576;2023-04-21T01:47:46;95811.63;;;6.56;98.05
23229;BME280;11783;50.350;6.576;2023-04-21T01:50:12;95812.09;;;6.53;96.27
23229;BME280;11783;50.350;6.576;2023-04-21T01:52:37;95818.41;;;6.52;98.08
23229;BME280;11783;50.350;6.576;2023-04-21T01:55:03;95808.88;;;6.51;98.10
23229;BME280;11783;50.350;6.576;2023-04-21T01:57:28;95811.53;;;6.51;97.67
23229;BME280;11783;50.350;6.576;2023-04-21T01:59:55;95810.47;;;6.52;98.98
23229;BME280;11783;50.350;6.576;2023-04-21T02:02:20;95807.63;;;6.53;97.85
23229;BME280;11783;50.350;6.576;2023-04-21T02:04:45;95803.81;;;6.49;96.96
23229;BME280;11783;50.350;6.576;2023-04-21T02:07:11;95805.22;;;6.52;96.83
23229;BME280;11783;50.350;6.576;2023-04-21T02:09:36;95804.03;;;6.48;96.70
23229;BME280;11783;50.350;6.576;2023-04-21T02:12:01;95799.47;;;6.55;97.19
23229;BME280;11783;50.350;6.576;2023-04-21T02:14:27;95791.88;;;6.58;96.43
23229;BME280;11783;50.350;6.576;2023-04-21T02:16:53;95788.22;;;6.59;96.03
23229;BME280;11783;50.350;6.576;2023-04-21T02:19:20;95783.28;;;6.63;96.09
23229;BME280;11783;50.350;6.576;2023-04-21T02:21:45;95784.88;;;6.64;95.86
23229;BME280;11783;50.350;6.576;2023-04-21T02:24:10;95783.75;;;6.60;95.80
23229;BME280;11783;50.350;6.576;2023-04-21T02:26:36;95782.13;;;6.59;95.51
23229;BME280;11783;50.350;6.576;2023-04-21T02:29:01;95783.63;;;6.55;95.08
23229;BME280;11783;50.350;6.576;2023-04-21T02:31:27;95789.38;;;6.52;95.15
23229;BME280;11783;50.350;6.576;2023-04-21T02:33:52;95788.75;;;6.50;95.31
23229;BME280;11783;50.350;6.576;2023-04-21T02:36:18;95787.63;;;6.46;95.64
23229;BME280;11783;50.350;6.576;2023-04-21T02:38:44;95792.09;;;6.45;95.74
23229;BME280;11783;50.350;6.576;2023-04-21T02:41:09;95778.91;;;6.45;96.00
23229;BME280;11783;50.350;6.576;2023-04-21T02:43:35;95790.72;;;6.43;96.08
23229;BME280;11783;50.350;6.576;2023-04-21T02:46:09;95783.84;;;6.42;95.74
23229;BME280;11783;50.350;6.576;2023-04-21T02:48:35;95796.34;;;6.46;95.27
23229;BME280;11783;50.350;6.576;2023-04-21T02:51:00;95790.94;;;6.41;95.66
23229;BME280;11783;50.350;6.576;2023-04-21T02:53:26;95786.00;;;6.33;95.77
23229;BME280;11783;50.350;6.576;2023-04-21T02:55:51;95793.00;;;6.39;96.60
23229;BME280;11783;50.350;6.576;2023-04-21T02:58:17;95790.59;;;6.37;96.76
23229;BME280;11783;50.350;6.576;2023-04-21T03:00:42;95790.84;;;6.36;96.17
23229;BME280;11783;50.350;6.576;2023-04-21T03:03:07;95789.56;;;6.38;96.62
23229;BME280;11783;50.350;6.576;2023-04-21T03:05:33;95791.41;;;6.38;96.65
23229;BME280;11783;50.350;6.576;2023-04-21T03:07:58;95800.34;;;6.37;95.79
23229;BME280;11783;50.350;6.576;2023-04-21T03:10:24;95809.06;;;6.37;96.56
23229;BME280;11783;50.350;6.576;2023-04-21T03:12:49;95802.84;;;6.32;96.22
23229;BME280;11783;50.350;6.576;2023-04-21T03:15:15;95801.03;;;6.32;96.13
23229;BME280;11783;50.350;6.576;2023-04-21T03:17:41;95799.28;;;6.26;96.16
23229;BME280;11783;50.350;6.576;2023-04-21T03:20:07;95800.44;;;6.30;95.91
23229;BME280;11783;50.350;6.576;2023-04-21T03:22:37;95799.88;;;6.28;95.30
23229;BME280;11783;50.350;6.576;2023-04-21T03:25:03;95799.97;;;6.22;95.71
23229;BME280;11783;50.350;6.576;2023-04-21T03:27:29;95799.50;;;6.25;95.62
23229;BME280;11783;50.350;6.576;2023-04-21T03:29:55;95800.44;;;6.19;96.30
23229;BME280;11783;50.350;6.576;2023-04-21T03:32:20;95796.41;;;6.16;96.20
23229;BME280;11783;50.350;6.576;2023-04-21T03:34:45;95797.66;;;6.14;95.58
23229;BME280;11783;50.350;6.576;2023-04-21T03:37:11;95802.72;;;6.15;95.37
23229;BME280;11783;50.350;6.576;2023-04-21T03:39:36;95793.63;;;6.11;95.45
23229;BME280;11783;50.350;6.576;2023-04-21T03:42:02;95797.97;;;6.05;95.48
23229;BME280;11783;50.350;6.576;2023-04-21T03:44:29;95803.47;;;6.04;95.76
23229;BME280;11783;50.350;6.576;2023-04-21T03:46:54;95809.78;;;6.03;95.57
23229;BME280;11783;50.350;6.576;2023-04-21T03:49:20;95807.38;;;6.01;94.54
23229;BME280;11783;50.350;6.576;2023-04-21T03:51:45;95815.72;;;5.98;94.68
23229;BME280;11783;50.350;6.576;2023-04-21T03:54:11;95813.97;;;5.92;94.99
23229;BME280;11783;50.350;6.576;2023-04-21T03:56:36;95806.88;;;5.93;94.46
23229;BME280;11783;50.350;6.576;2023-04-21T03:59:02;95809.94;;;5.90;94.43
23229;BME280;11783;50.350;6.576;2023-04-21T04:01:27;95811.75;;;5.89;94.68
23229;BME280;11783;50.350;6.576;2023-04-21T04:03:52;95813.59;;;5.89;94.47
23229;BME280;11783;50.350;6.576;2023-04-21T04:06:18;95818.06;;;5.88;94.02
23229;BME280;11783;50.350;6.576;2023-04-21T04:08:43;95813.22;;;5.85;94.28
23229;BME280;11783;50.350;6.576;2023-04-21T04:11:08;95813.09;;;5.80;95.69
23229;BME280;11783;50.350;6.576;2023-04-21T04:13:33;95805.41;;;5.78;95.51
23229;BME280;11783;50.350;6.576;2023-04-21T04:15:59;95819.66;;;5.59;99.28
23229;BME280;11783;50.350;6.576;2023-04-21T04:18:24;95810.34;;;5.57;98.24
23229;BME280;11783;50.350;6.576;2023-04-21T04:20:49;95810.72;;;5.60;97.36
23229;BME280;11783;50.350;6.576;2023-04-21T04:23:15;95816.38;;;5.45;97.67
23229;BME280;11783;50.350;6.576;2023-04-21T04:25:40;95817.09;;;5.53;99.01
23229;BME280;11783;50.350;6.576;2023-04-21T04:28:06;95818.91;;;5.52;98.14
23229;BME280;11783;50.350;6.576;2023-04-21T04:30:32;95821.56;;;5.52;98.33
23229;BME280;11783;50.350;6.576;2023-04-21T04:32:58;95816.84;;;5.54;98.98
23229;BME280;11783;50.350;6.576;2023-04-21T04:35:23;95821.78;;;5.51;98.11
23229;BME280;11783;50.350;6.576;2023-04-21T04:37:49;95819.50;;;5.54;98.76
23229;BME280;11783;50.350;6.576;2023-04-21T04:40:14;95823.50;;;5.57;98.86
23229;BME280;11783;50.350;6.576;2023-04-21T04:42:41;95824.72;;;5.61;100.00
23229;BME280;11783;50.350;6.576;2023-04-21T04:45:07;95823.50;;;5.57;99.38
23229;BME280;11783;50.350;6.576;2023-04-21T04:47:34;95818.63;;;5.60;99.42
23229;BME280;11783;50.350;6.576;2023-04-21T04:49:59;95818.25;;;5.57;99.03
23229;BME280;11783;50.350;6.576;2023-04-21T04:52:25;95811.00;;;5.52;99.13
23229;BME280;11783;50.350;6.576;2023-04-21T04:54:50;95825.22;;;5.51;99.24
23229;BME280;11783;50.350;6.576;2023-04-21T04:57:15;95811.69;;;5.47;99.55
23229;BME280;11783;50.350;6.576;2023-04-21T04:59:41;95815.22;;;5.41;100.00
23229;BME280;11783;50.350;6.576;2023-04-21T05:02:06;95812.97;;;5.57;100.00
23229;BME280;11783;50.350;6.576;2023-04-21T05:04:33;95812.09;;;5.63;99.66
23229;BME280;11783;50.350;6.576;2023-04-21T05:06:58;95817.03;;;5.59;99.54
23229;BME280;11783;50.350;6.576;2023-04-21T05:09:23;95820.00;;;5.63;98.85
23229;BME280;11783;50.350;6.576;2023-04-21T05:11:50;95820.47;;;5.60;99.89
23229;BME280;11783;50.350;6.576;2023-04-21T05:14:15;95819.84;;;5.58;98.78
23229;BME280;11783;50.350;6.576;2023-04-21T05:16:42;95815.56;;;5.63;98.07
23229;BME280;11783;50.350;6.576;2023-04-21T05:19:08;95818.91;;;5.70;97.81
23229;BME280;11783;50.350;6.576;2023-04-21T05:21:33;95824.84;;;5.66;96.91
23229;BME280;11783;50.350;6.576;2023-04-21T05:23:58;95823.94;;;5.72;96.98
23229;BME280;11783;50.350;6.576;2023-04-21T05:26:26;95818.84;;;5.77;95.93
23229;BME280;11783;50.350;6.576;2023-04-21T05:28:55;95819.84;;;5.76;95.96
23229;BME280;11783;50.350;6.576;2023-04-21T05:31:24;95819.25;;;5.74;96.42
23229;BME280;11783;50.350;6.576;2023-04-21T05:33:50;95826.22;;;5.68;96.41
23229;BME280;11783;50.350;6.576;2023-04-21T05:36:15;95826.22;;;5.68;96.51
23229;BME280;11783;50.350;6.576;2023-04-21T05:38:40;95826.81;;;5.70;96.78
23229;BME280;11783;50.350;6.576;2023-04-21T05:41:06;95825.56;;;5.73;96.55
23229;BME280;11783;50.350;6.576;2023-04-21T05:43:32;95830.81;;;5.73;96.13
23229;BME280;11783;50.350;6.576;2023-04-21T05:45:58;95837.72;;;5.74;96.22
23229;BME280;11783;50.350;6.576;2023-04-21T05:48:23;95835.06;;;5.74;96.48
23229;BME280;11783;50.350;6.576;2023-04-21T05:50:49;95836.09;;;5.73;98.16
23229;BME280;11783;50.350;6.576;2023-04-21T05:53:14;95829.00;;;5.73;97.07
23229;BME280;11783;50.350;6.576;2023-04-21T05:55:40;95837.94;;;5.72;96.99
23229;BME280;11783;50.350;6.576;2023-04-21T05:58:05;95836.19;;;5.66;97.53
23229;BME280;11783;50.350;6.576;2023-04-21T06:00:30;95835.25;;;5.61;98.46
23229;BME280;11783;50.350;6.576;2023-04-21T06:02:56;95835.03;;;5.44;100.00
23229;BME280;11783;50.350;6.576;2023-04-21T06:05:21;95841.03;;;5.51;100.00
23229;BME280;11783;50.350;6.576;2023-04-21T06:07:47;95841.69;;;5.46;100.00
23229;BME280;11783;50.350;6.576;2023-04-21T06:10:12;95839.13;;;5.58;100.00
23229;BME280;11783;50.350;6.576;2023-04-21T06:12:38;95841.09;;;5.63;100.00
23229;BME280;11783;50.350;6.576;2023-04-21T06:15:03;95833.88;;;5.58;100.00
23229;BME280;11783;50.350;6.576;2023-04-21T06:17:29;95826.47;;;5.48;100.00
23229;BME280;11783;50.350;6.576;2023-04-21T06:19:55;95829.41;;;5.59;100.00
23229;BME280;11783;50.350;6.576;2023-04-21T06:22:23;95829.97;;;5.61;100.00
23229;BME280;11783;50.350;6.576;2023-04-21T06:24:49;95827.69;;;5.64;100.00
23229;BME280;11783;50.350;6.576;2023-04-21T06:27:14;95828.28;;;5.66;100.00
23229;BME280;11783;50.350;6.576;2023-04-21T06:29:41;95823.16;;;5.53;100.00
23229;BME280;11783;50.350;6.576;2023-04-21T06:32:10;95822.44;;;5.64;100.00
23229;BME280;11783;50.350;6.576;2023-04-21T06:34:36;95825.50;;;5.61;100.00
23229;BME280;11783;50.350;6.576;2023-04-21T06:37:01;95823.22;;;5.65;100.00
23229;BME280;11783;50.350;6.576;2023-04-21T06:39:27;95817.88;;;5.71;100.00
23229;BME280;11783;50.350;6.576;2023-04-21T06:41:52;95820.34;;;5.85;100.00
23229;BME280;11783;50.350;6.576;2023-04-21T06:44:18;95822.19;;;5.84;100.00
23229;BME280;11783;50.350;6.576;2023-04-21T06:46:43;95820.56;;;5.83;100.00
23229;BME280;11783;50.350;6.576;2023-04-21T06:49:09;95816.31;;;5.82;100.00
23229;BME280;11783;50.350;6.576;2023-04-21T06:51:34;95822.03;;;5.97;100.00
23229;BME280;11783;50.350;6.576;2023-04-21T06:54:00;95815.97;;;5.97;100.00
23229;BME280;11783;50.350;6.576;2023-04-21T06:56:26;95816.75;;;5.97;100.00
23229;BME280;11783;50.350;6.576;2023-04-21T06:58:52;95814.47;;;6.01;100.00
23229;BME280;11783;50.350;6.576;2023-04-21T07:01:17;95810.63;;;6.15;100.00
23229;BME280;11783;50.350;6.576;2023-04-21T07:03:43;95808.22;;;6.14;100.00
23229;BME280;11783;50.350;6.576;2023-04-21T07:06:09;95813.34;;;6.08;100.00
23229;BME280;11783;50.350;6.576;2023-04-21T07:08:35;95813.63;;;6.19;100.00
23229;BME280;11783;50.350;6.576;2023-04-21T07:11:01;95813.28;;;6.27;100.00
23229;BME280;11783;50.350;6.576;2023-04-21T07:13:26;95815.31;;;6.13;100.00
23229;BME280;11783;50.350;6.576;2023-04-21T07:15:52;95817.41;;;6.23;100.00
23229;BME280;11783;50.350;6.576;2023-04-21T07:18:17;95807.94;;;6.33;100.00
23229;BME280;11783;50.350;6.576;2023-04-21T07:20:42;95816.41;;;6.35;100.00
23229;BME280;11783;50.350;6.576;2023-04-21T07:23:08;95809.75;;;6.45;100.00
23229;BME280;11783;50.350;6.576;2023-04-21T07:25:33;95809.69;;;6.51;100.00
23229;BME280;11783;50.350;6.576;2023-04-21T07:27:58;95806.94;;;6.58;100.00
23229;BME280;11783;50.350;6.576;2023-04-21T07:30:24;95807.25;;;6.50;100.00
23229;BME280;11783;50.350;6.576;2023-04-21T07:32:50;95808.19;;;6.55;100.00
23229;BME280;11783;50.350;6.576;2023-04-21T07:35:15;95802.09;;;6.66;100.00
23229;BME280;11783;50.350;6.576;2023-04-21T07:37:40;95797.88;;;6.77;100.00
23229;BME280;11783;50.350;6.576;2023-04-21T07:40:07;95799.34;;;6.85;100.00
23229;BME280;11783;50.350;6.576;2023-04-21T07:42:33;95800.06;;;6.92;100.00
23229;BME280;11783;50.350;6.576;2023-04-21T07:44:58;95798.44;;;6.91;100.00
23229;BME280;11783;50.350;6.576;2023-04-21T07:47:25;95800.59;;;7.06;100.00
23229;BME280;11783;50.350;6.576;2023-04-21T07:49:50;95800.03;;;7.27;100.00
23229;BME280;11783;50.350;6.576;2023-04-21T07:52:16;95803.69;;;7.38;100.00
23229;BME280;11783;50.350;6.576;2023-04-21T07:54:41;95801.38;;;7.41;100.00
23229;BME280;11783;50.350;6.576;2023-04-21T07:57:06;95798.81;;;7.58;100.00
23229;BME280;11783;50.350;6.576;2023-04-21T07:59:32;95800.63;;;7.69;100.00
23229;BME280;11783;50.350;6.576;2023-04-21T08:01:57;95804.19;;;8.03;100.00
23229;BME280;11783;50.350;6.576;2023-04-21T08:04:23;95804.09;;;8.15;100.00
23229;BME280;11783;50.350;6.576;2023-04-21T08:06:48;95798.53;;;8.28;99.88
23229;BME280;11783;50.350;6.576;2023-04-21T08:09:13;95801.16;;;8.40;97.43
23229;BME280;11783;50.350;6.576;2023-04-21T08:11:39;95805.47;;;8.46;96.01
23229;BME280;11783;50.350;6.576;2023-04-21T08:14:04;95799.38;;;8.45;95.80
23229;BME280;11783;50.350;6.576;2023-04-21T08:16:29;95804.25;;;8.54;96.83
23229;BME280;11783;50.350;6.576;2023-04-21T08:18:55;95805.16;;;8.59;95.03
23229;BME280;11783;50.350;6.576;2023-04-21T08:21:20;95803.94;;;8.50;94.64
23229;BME280;11783;50.350;6.576;2023-04-21T08:23:45;95806.09;;;8.53;97.44
23229;BME280;11783;50.350;6.576;2023-04-21T08:26:11;95802.75;;;8.58;95.90
23229;BME280;11783;50.350;6.576;2023-04-21T08:28:37;95808.53;;;8.55;95.79
23229;BME280;11783;50.350;6.576;2023-04-21T08:31:02;95814.25;;;8.63;95.29
23229;BME280;11783;50.350;6.576;2023-04-21T08:33:28;95813.25;;;8.69;94.08
23229;BME280;11783;50.350;6.576;2023-04-21T08:35:54;95807.47;;;8.72;95.00
23229;BME280;11783;50.350;6.576;2023-04-21T08:38:19;95808.38;;;8.78;96.54
23229;BME280;11783;50.350;6.576;2023-04-21T08:40:45;95809.00;;;8.68;94.56
23229;BME280;11783;50.350;6.576;2023-04-21T08:43:10;95811.66;;;8.68;93.83
23229;BME280;11783;50.350;6.576;2023-04-21T08:45:37;95811.59;;;8.80;94.08
23229;BME280;11783;50.350;6.576;2023-04-21T08:48:03;95806.44;;;8.90;93.63
23229;BME280;11783;50.350;6.576;2023-04-21T08:50:30;95808.84;;;8.92;93.04
23229;BME280;11783;50.350;6.576;2023-04-21T08:52:56;95806.69;;;8.72;94.29
23229;BME280;11783;50.350;6.576;2023-04-21T08:55:30;95803.44;;;9.03;97.79
23229;BME280;11783;50.350;6.576;2023-04-21T08:57:56;95801.31;;;9.22;96.01
23229;BME280;11783;50.350;6.576;2023-04-21T09:00:21;95807.75;;;9.48;94.16
23229;BME280;11783;50.350;6.576;2023-04-21T09:02:58;95807.34;;;9.56;92.37
23229;BME280;11783;50.350;6.576;2023-04-21T09:05:26;95812.72;;;9.61;91.35
23229;BME280;11783;50.350;6.576;2023-04-21T09:08:06;95809.69;;;9.75;91.72
23229;BME280;11783;50.350;6.576;2023-04-21T09:10:32;95811.00;;;9.72;89.28
23229;BME280;11783;50.350;6.576;2023-04-21T09:12:59;95807.59;;;9.77;90.37
23229;BME280;11783;50.350;6.576;2023-04-21T09:15:37;95799.03;;;9.69;86.85
23229;BME280;11783;50.350;6.576;2023-04-21T09:18:03;95808.28;;;9.89;89.99
23229;BME280;11783;50.350;6.576;2023-04-21T09:20:28;95803.97;;;10.10;90.08
23229;BME280;11783;50.350;6.576;2023-04-21T09:22:53;95798.47;;;10.16;88.06
23229;BME280;11783;50.350;6.576;2023-04-21T09:25:20;95803.59;;;10.01;86.80
23229;BME280;11783;50.350;6.576;2023-04-21T09:27:46;95803.03;;;10.21;89.81
23229;BME280;11783;50.350;6.576;2023-04-21T09:30:12;95793.88;;;10.34;86.64
23229;BME280;11783;50.350;6.576;2023-04-21T09:32:39;95795.91;;;10.53;88.22
23229;BME280;11783;50.350;6.576;2023-04-21T09:35:08;95797.50;;;10.54;86.76
23229;BME280;11783;50.350;6.576;2023-04-21T09:37:35;95798.41;;;10.65;87.07
23229;BME280;11783;50.350;6.576;2023-04-21T09:40:00;95787.84;;;10.75;85.47
23229;BME280;11783;50.350;6.576;2023-04-21T09:42:30;95776.75;;;10.83;83.81
23229;BME280;11783;50.350;6.576;2023-04-21T09:44:55;95774.41;;;10.92;84.77
23229;BME280;11783;50.350;6.576;2023-04-21T09:47:21;95776.81;;;10.93;85.03
23229;BME280;11783;50.350;6.576;2023-04-21T09:49:51;95772.66;;;11.08;83.74
23229;BME280;11783;50.350;6.576;2023-04-21T09:52:20;95769.28;;;11.22;85.52
23229;BME280;11783;50.350;6.576;2023-04-21T09:54:51;95775.53;;;11.48;80.50
23229;BME280;11783;50.350;6.576;2023-04-21T09:57:24;95768.34;;;11.49;81.89
23229;BME280;11783;50.350;6.576;2023-04-21T09:59:54;95760.41;;;11.59;81.91
23229;BME280;11783;50.350;6.576;2023-04-21T10:02:24;95762.84;;;11.66;81.38
23229;BME280;11783;50.350;6.576;2023-04-21T10:04:50;95767.41;;;11.75;79.19
23229;BME280;11783;50.350;6.576;2023-04-21T10:07:16;95769.03;;;11.87;78.50
23229;BME280;11783;50.350;6.576;2023-04-21T10:09:48;95761.91;;;11.97;79.81
23229;BME280;11783;50.350;6.576;2023-04-21T10:12:15;95757.38;;;12.03;79.06
23229;BME280;11783;50.350;6.576;2023-04-21T10:14:42;95762.75;;;12.13;79.15
23229;BME280;11783;50.350;6.576;2023-04-21T10:17:08;95759.81;;;12.25;77.59
23229;BME280;11783;50.350;6.576;2023-04-21T10:19:35;95759.03;;;12.39;76.96
23229;BME280;11783;50.350;6.576;2023-04-21T10:22:07;95754.75;;;12.43;75.13
23229;BME280;11783;50.350;6.576;2023-04-21T10:24:39;95740.94;;;12.67;77.12
23229;BME280;11783;50.350;6.576;2023-04-21T10:27:09;95743.84;;;12.86;73.33
23229;BME280;11783;50.350;6.576;2023-04-21T10:29:35;95740.38;;;12.90;74.01
23229;BME280;11783;50.350;6.576;2023-04-21T10:32:02;95751.00;;;13.00;72.76
23229;BME280;11783;50.350;6.576;2023-04-21T10:34:38;95743.00;;;13.00;72.32
23229;BME280;11783;50.350;6.576;2023-04-21T10:39:41;95735.81;;;13.06;71.18
23229;BME280;11783;50.350;6.576;2023-04-21T10:44:43;95728.31;;;13.18;70.04
23229;BME280;11783;50.350;6.576;2023-04-21T10:47:08;95714.44;;;13.11;69.19
23229;BME280;11783;50.350;6.576;2023-04-21T10:49:38;95713.88;;;13.29;69.55
23229;BME280;11783;50.350;6.576;2023-04-21T10:52:05;95709.06;;;13.31;66.88
23229;BME280;11783;50.350;6.576;2023-04-21T10:54:43;95706.53;;;13.66;71.74
23229;BME280;11783;50.350;6.576;2023-04-21T10:57:11;95695.97;;;13.94;68.20
23229;BME280;11783;50.350;6.576;2023-04-21T10:59:37;95688.38;;;14.07;67.14
23229;BME280;11783;50.350;6.576;2023-04-21T11:02:20;95688.03;;;14.18;66.38
23229;BME280;11783;50.350;6.576;2023-04-21T11:04:50;95691.41;;;14.34;65.73
23229;BME280;11783;50.350;6.576;2023-04-21T11:07:22;95684.38;;;14.43;61.60
23229;BME280;11783;50.350;6.576;2023-04-21T11:10:02;95674.72;;;14.47;62.54
23229;BME280;11783;50.350;6.576;2023-04-21T11:12:33;95665.91;;;14.47;64.27
23229;BME280;11783;50.350;6.576;2023-04-21T11:15:02;95656.66;;;14.63;63.59
23229;BME280;11783;50.350;6.576;2023-04-21T11:17:28;95657.59;;;14.48;59.09
23229;BME280;11783;50.350;6.576;2023-04-21T11:19:55;95661.19;;;14.34;55.64
23229;BME280;11783;50.350;6.576;2023-04-21T11:22:24;95651.75;;;14.46;60.79
23229;BME280;11783;50.350;6.576;2023-04-21T11:24:53;95640.91;;;14.62;62.70
23229;BME280;11783;50.350;6.576;2023-04-21T11:27:19;95637.72;;;14.89;60.77
23229;BME280;11783;50.350;6.576;2023-04-21T11:29:47;95644.13;;;15.11;62.55
23229;BME280;11783;50.350;6.576;2023-04-21T11:32:13;95646.31;;;15.09;59.33
23229;BME280;11783;50.350;6.576;2023-04-21T11:34:39;95633.13;;;15.13;58.76
23229;BME280;11783;50.350;6.576;2023-04-21T11:37:16;95642.38;;;15.26;58.72
23229;BME280;11783;50.350;6.576;2023-04-21T11:39:42;95638.59;;;15.27;56.20
23229;BME280;11783;50.350;6.576;2023-04-21T11:42:08;95634.34;;;15.26;58.78
23229;BME280;11783;50.350;6.576;2023-04-21T11:46:59;95633.41;;;15.54;55.98
23229;BME280;11783;50.350;6.576;2023-04-21T11:49:25;95631.09;;;15.48;50.55
23229;BME280;11783;50.350;6.576;2023-04-21T11:51:53;95644.41;;;15.53;50.27
23229;BME280;11783;50.350;6.576;2023-04-21T11:54:19;95638.28;;;15.52;52.61
23229;BME280;11783;50.350;6.576;2023-04-21T11:56:48;95639.53;;;15.36;49.80
23229;BME280;11783;50.350;6.576;2023-04-21T11:59:15;95651.66;;;15.52;50.03
23229;BME280;11783;50.350;6.576;2023-04-21T12:01:48;95649.63;;;15.44;50.68
23229;BME280;11783;50.350;6.576;2023-04-21T12:04:18;95648.88;;;15.62;53.74
23229;BME280;11783;50.350;6.576;2023-04-21T12:06:44;95650.69;;;15.67;52.49
23229;BME280;11783;50.350;6.576;2023-04-21T12:09:17;95652.41;;;15.77;51.95
23229;BME280;11783;50.350;6.576;2023-04-21T12:11:46;95650.69;;;15.86;48.26
23229;BME280;11783;50.350;6.576;2023-04-21T12:14:13;95655.47;;;15.89;49.63
23229;BME280;11783;50.350;6.576;2023-04-21T12:16:39;95650.19;;;16.02;48.16
23229;BME280;11783;50.350;6.576;2023-04-21T12:19:04;95649.72;;;16.14;50.32
23229;BME280;11783;50.350;6.576;2023-04-21T12:21:30;95636.97;;;16.25;50.97
23229;BME280;11783;50.350;6.576;2023-04-21T12:23:55;95640.34;;;16.30;49.99
23229;BME280;11783;50.350;6.576;2023-04-21T12:26:21;95623.63;;;16.52;53.64
23229;BME280;11783;50.350;6.576;2023-04-21T12:28:48;95625.53;;;16.65;51.52
23229;BME280;11783;50.350;6.576;2023-04-21T12:31:14;95640.41;;;16.77;51.25
23229;BME280;11783;50.350;6.576;2023-04-21T12:33:39;95623.63;;;16.52;50.90
23229;BME280;11783;50.350;6.576;2023-04-21T12:36:05;95630.81;;;16.57;49.41
23229;BME280;11783;50.350;6.576;2023-04-21T12:38:30;95631.75;;;16.47;49.90
23229;BME280;11783;50.350;6.576;2023-04-21T12:40:56;95626.19;;;16.44;49.05
23229;BME280;11783;50.350;6.576;2023-04-21T12:43:21;95639.81;;;16.47;51.35
23229;BME280;11783;50.350;6.576;2023-04-21T12:45:48;95635.22;;;16.48;50.40
23229;BME280;11783;50.350;6.576;2023-04-21T12:48:13;95614.00;;;16.65;48.80
23229;BME280;11783;50.350;6.576;2023-04-21T12:50:38;95625.50;;;16.84;49.71
23229;BME280;11783;50.350;6.576;2023-04-21T12:53:04;95632.06;;;16.92;47.51
23229;BME280;11783;50.350;6.576;2023-04-21T12:55:29;95632.97;;;17.01;45.61
23229;BME280;11783;50.350;6.576;2023-04-21T12:57:54;95618.84;;;16.95;47.53
23229;BME280;11783;50.350;6.576;2023-04-21T13:00:20;95624.13;;;17.14;45.02
23229;BME280;11783;50.350;6.576;2023-04-21T13:02:46;95621.31;;;17.33;49.35
23229;BME280;11783;50.350;6.576;2023-04-21T13:05:11;95626.41;;;17.35;43.83
23229;BME280;11783;50.350;6.576;2023-04-21T13:07:37;95622.91;;;17.07;45.35